Terminal Aerodrome Forecast
Issued by NWS

Home | Current Version | Previous Version | Text Only | Print | Product List | Glossary On
Versions: 1 2 3 4 5 6 7 8 9 10 11 12 13 14 15 16 17 18 19 20 21 22 23
000
FTUS44 KMAF 170800 AAA
TAFCNM
TAF AMD
KCNM 170822Z 1708/1806 VRB05KT P6SM BKN050 OVC080
      TEMPO 1709/1713 BKN030
     FM171800 16007KT P6SM -SHRA SCT030 BKN100=

USA.gov is the U.S. government's official web portal to all federal, state and local government web resources and services.